Time;durP1;ratioP1;P1;durP2;ratioP2;P2;SDS_P1;SDS_P2;PMS_P1;PMS_P2;Temp;Humidity;BMP_temperature;BMP_pressure;BME280_temperature;BME280_humidity;BME280_pressure;Samples;Min_cycle;Max_cycle;Signal;HPM_P1;HPM_P2
2023/09/17 00:01:43;;;;;;;17.30;15.50;;;;;;;15.94;100.00;99162.65;110295;1244;65678;-68
2023/09/17 00:04:09;;;;;;;18.00;16.20;;;;;;;15.90;100.00;99156.05;110310;1244;59955;-67
2023/09/17 00:06:36;;;;;;;18.40;16.70;;;;;;;15.85;100.00;99153.92;110273;1244;64108;-68
2023/09/17 00:09:03;;;;;;;18.80;17.10;;;;;;;15.83;100.00;99156.28;110303;1244;58960;-68
2023/09/17 00:11:30;;;;;;;19.90;18.00;;;;;;;15.82;100.00;99154.74;110312;1244;58954;-68
2023/09/17 00:13:56;;;;;;;19.40;17.40;;;;;;;15.82;100.00;99157.08;110283;1244;66030;-68
2023/09/17 00:16:24;;;;;;;18.60;16.80;;;;;;;15.80;100.00;99155.05;110328;1245;59808;-68
2023/09/17 00:18:51;;;;;;;18.40;16.10;;;;;;;15.81;100.00;99155.02;110286;1244;64070;-68
2023/09/17 00:21:17;;;;;;;18.50;16.70;;;;;;;15.81;100.00;99154.83;110243;1244;59533;-68
2023/09/17 00:23:44;;;;;;;18.80;16.90;;;;;;;15.80;100.00;99152.36;110338;1244;59816;-68
2023/09/17 00:26:10;;;;;;;19.80;17.80;;;;;;;15.79;100.00;99147.77;110288;1244;58981;-68
2023/09/17 00:28:37;;;;;;;19.10;17.20;;;;;;;15.80;100.00;99153.49;110343;1244;58960;-69
2023/09/17 00:31:25;;;;;;;19.00;17.00;;;;;;;15.78;100.00;99155.40;110265;1245;62818;-68
2023/09/17 00:33:54;;;;;;;19.10;17.30;;;;;;;15.76;100.00;99152.58;109765;1250;59026;-68
2023/09/17 00:36:21;;;;;;;19.10;17.20;;;;;;;15.72;100.00;99153.13;109798;1250;59362;-68
2023/09/17 00:38:47;;;;;;;19.50;17.40;;;;;;;15.67;100.00;99158.52;109563;1250;64611;-68
2023/09/17 00:41:14;;;;;;;20.10;18.10;;;;;;;15.64;100.00;99156.77;109834;1251;60176;-67
2023/09/17 00:43:41;;;;;;;20.70;18.80;;;;;;;15.62;100.00;99156.02;109790;1249;64004;-68
2023/09/17 00:46:08;;;;;;;19.10;17.20;;;;;;;15.62;100.00;99151.98;109758;1251;59057;-68
2023/09/17 00:48:35;;;;;;;18.00;16.20;;;;;;;15.60;100.00;99154.02;109838;1249;59057;-68
2023/09/17 00:51:03;;;;;;;19.30;17.30;;;;;;;15.57;100.00;99153.58;109796;1249;65955;-68
2023/09/17 00:53:29;;;;;;;18.20;16.50;;;;;;;15.55;100.00;99151.30;109806;1251;60206;-68
2023/09/17 00:55:56;;;;;;;19.90;17.20;;;;;;;15.52;100.00;99145.95;109483;1251;64063;-68
2023/09/17 00:58:23;;;;;;;17.80;16.10;;;;;;;15.49;100.00;99144.09;109811;1251;59029;-68
2023/09/17 01:00:50;;;;;;;17.70;16.10;;;;;;;15.47;100.00;99139.94;109837;1249;58957;-68
2023/09/17 01:03:17;;;;;;;19.40;17.30;;;;;;;15.48;100.00;99136.65;109837;1249;66017;-68
2023/09/17 01:05:45;;;;;;;17.80;16.10;;;;;;;15.47;100.00;99138.67;110152;1244;59296;-68
2023/09/17 01:08:12;;;;;;;19.00;17.10;;;;;;;15.48;100.00;99143.08;110284;1244;65228;-68
2023/09/17 01:10:41;;;;;;;20.10;18.00;;;;;;;15.47;100.00;99144.78;110288;1244;59035;-68
2023/09/17 01:13:08;;;;;;;20.80;18.70;;;;;;;15.46;100.00;99138.83;110313;1244;58874;-68
2023/09/17 01:15:53;;;;;;;20.10;18.10;;;;;;;15.45;100.00;99138.01;110343;1244;66327;-68
2023/09/17 01:18:27;;;;;;;22.70;20.60;;;;;;;15.43;100.00;99140.65;110325;1244;58987;-68
2023/09/17 01:21:23;;;;;;;30.70;27.80;;;;;;;15.43;100.00;99144.08;109901;1244;62818;-68
2023/09/17 01:24:21;;;;;;;22.50;20.40;;;;;;;15.40;100.00;99144.88;109473;1253;59071;-68
2023/09/17 01:27:03;;;;;;;21.40;19.30;;;;;;;15.36;100.00;99144.84;109529;1253;58953;-68
2023/09/17 01:29:32;;;;;;;20.30;18.30;;;;;;;15.35;100.00;99143.48;109495;1254;65789;-68
2023/09/17 01:31:58;;;;;;;21.40;19.40;;;;;;;15.34;100.00;99140.89;109517;1253;60232;-68
2023/09/17 01:34:25;;;;;;;20.60;18.70;;;;;;;15.33;100.00;99139.70;109465;1253;64070;-68
2023/09/17 01:36:57;;;;;;;20.70;18.70;;;;;;;15.32;100.00;99137.63;109456;1252;59040;-68
2023/09/17 01:39:27;;;;;;;21.50;19.40;;;;;;;15.29;100.00;99132.35;109491;1253;58990;-68
2023/09/17 01:41:55;;;;;;;21.80;19.50;;;;;;;15.27;100.00;99128.40;109358;1253;66983;-68
2023/09/17 01:44:24;;;;;;;22.10;19.80;;;;;;;15.29;100.00;99130.34;109512;1253;60160;-68
2023/09/17 01:46:51;;;;;;;21.30;19.30;;;;;;;15.30;100.00;99124.02;109451;1254;62863;-68
2023/09/17 01:49:18;;;;;;;21.00;18.80;;;;;;;15.28;100.00;99129.73;109496;1253;58977;-68
2023/09/17 01:51:46;;;;;;;21.10;19.10;;;;;;;15.27;100.00;99128.40;109513;1253;59010;-68
2023/09/17 01:54:14;;;;;;;21.50;19.30;;;;;;;15.26;100.00;99129.04;109500;1253;66039;-68
2023/09/17 01:56:41;;;;;;;20.80;18.70;;;;;;;15.23;100.00;99127.34;109509;1253;60109;-68
2023/09/17 01:59:08;;;;;;;20.30;18.30;;;;;;;15.20;100.00;99128.29;109476;1254;62839;-68
2023/09/17 02:01:34;;;;;;;22.00;19.80;;;;;;;15.18;100.00;99128.48;110083;1244;59011;-68
2023/09/17 02:04:01;;;;;;;23.00;20.70;;;;;;;15.17;100.00;99127.70;110255;1244;58983;-68
2023/09/17 02:06:28;;;;;;;25.40;22.80;;;;;;;15.18;100.00;99128.63;110329;1244;65708;-68
2023/09/17 02:08:54;;;;;;;24.40;21.90;;;;;;;15.19;100.00;99127.46;110250;1245;60181;-68
2023/09/17 02:11:21;;;;;;;23.30;21.00;;;;;;;15.22;100.00;99122.40;110291;1244;63705;-68
2023/09/17 02:13:47;;;;;;;26.60;23.90;;;;;;;15.25;100.00;99117.13;110309;1244;59346;-69
2023/09/17 02:16:14;;;;;;;25.40;22.80;;;;;;;15.28;100.00;99121.88;110323;1244;59080;-68
2023/09/17 02:18:40;;;;;;;27.90;25.00;;;;;;;15.29;100.00;99119.48;110300;1244;66004;-68
2023/09/17 02:21:07;;;;;;;27.90;24.90;;;;;;;15.30;100.00;99117.27;109789;1244;59173;-68
2023/09/17 02:23:34;;;;;;;30.10;25.30;;;;;;;15.30;100.00;99114.38;110345;1244;62605;-68
2023/09/17 02:26:01;;;;;;;28.70;25.80;;;;;;;15.32;100.00;99114.94;109917;1244;59060;-68
2023/09/17 02:28:27;;;;;;;26.70;23.60;;;;;;;15.32;100.00;99112.56;110292;1244;59301;-68
2023/09/17 02:30:54;;;;;;;26.30;23.40;;;;;;;15.32;100.00;99120.25;110382;1244;65004;-68
2023/09/17 02:33:20;;;;;;;28.10;25.10;;;;;;;15.31;100.00;99123.04;110377;1244;58931;-68
2023/09/17 02:35:47;;;;;;;26.20;23.50;;;;;;;15.28;100.00;99122.56;110050;1244;64098;-68
2023/09/17 02:38:14;;;;;;;27.60;24.80;;;;;;;15.27;100.00;99118.74;110294;1244;58939;-68
2023/09/17 02:40:40;;;;;;;27.30;24.30;;;;;;;15.28;100.00;99117.98;110313;1244;58966;-68
2023/09/17 02:43:07;;;;;;;25.90;23.40;;;;;;;15.30;100.00;99113.30;110361;1244;64931;-68
2023/09/17 02:45:33;;;;;;;26.80;24.10;;;;;;;15.32;100.00;99118.81;110312;1244;58987;-68
2023/09/17 02:48:00;;;;;;;27.10;24.30;;;;;;;15.35;100.00;99117.02;109772;1244;62994;-68
2023/09/17 02:50:26;;;;;;;26.60;23.50;;;;;;;15.37;100.00;99117.84;110287;1244;58926;-68
2023/09/17 02:52:53;;;;;;;28.50;25.00;;;;;;;15.40;100.00;99120.89;110303;1244;59255;-68
2023/09/17 02:55:19;;;;;;;26.80;23.90;;;;;;;15.42;100.00;99122.71;110294;1244;64819;-68
2023/09/17 02:57:48;;;;;;;27.50;24.60;;;;;;;15.43;100.00;99127.05;109935;1244;60196;-68
2023/09/17 03:00:17;;;;;;;26.00;23.40;;;;;;;15.46;100.00;99129.30;110336;1244;65030;-68
2023/09/17 03:02:47;;;;;;;26.40;23.70;;;;;;;15.48;100.00;99130.56;110280;1244;59065;-68
2023/09/17 03:05:15;;;;;;;26.70;24.00;;;;;;;15.51;100.00;99130.36;110304;1244;59165;-68
2023/09/17 03:07:43;;;;;;;25.70;23.20;;;;;;;15.53;100.00;99134.62;110338;1244;66141;-68
2023/09/17 03:10:13;;;;;;;25.30;22.70;;;;;;;15.54;100.00;99135.20;109797;1244;59583;-68
2023/09/17 03:12:39;;;;;;;;;;;;;;;15.56;100.00;99132.36;110304;1244;62498;-68
2023/09/17 03:15:07;;;;;;;24.70;22.20;;;;;;;15.57;100.00;99126.95;110303;1244;58921;-68
2023/09/17 03:17:37;;;;;;;25.20;22.60;;;;;;;15.58;100.00;99126.33;109784;1244;58984;-68
2023/09/17 03:20:13;;;;;;;27.20;24.10;;;;;;;15.60;100.00;99124.70;110350;1244;66049;-68
2023/09/17 03:22:40;;;;;;;27.60;24.70;;;;;;;15.62;100.00;99124.95;110315;1244;60208;-68
2023/09/17 03:25:07;;;;;;;29.00;25.60;;;;;;;15.62;100.00;99121.48;110303;1244;64374;-68
2023/09/17 03:27:34;;;;;;;26.20;23.10;;;;;;;15.63;100.00;99115.11;110312;1244;59024;-68
2023/09/17 03:30:04;;;;;;;26.20;23.50;;;;;;;15.63;100.00;99114.63;110312;1244;58948;-68
2023/09/17 03:32:31;;;;;;;26.60;23.80;;;;;;;15.63;100.00;99121.64;110347;1244;66058;-68
2023/09/17 03:34:58;;;;;;;25.60;22.90;;;;;;;15.62;100.00;99125.60;110294;1244;60105;-68
2023/09/17 03:37:25;;;;;;;25.60;23.20;;;;;;;15.62;100.00;99128.71;110287;1244;64056;-68
2023/09/17 03:40:10;;;;;;;23.40;21.10;;;;;;;15.61;100.00;99121.98;110337;1244;58949;-68
2023/09/17 03:42:38;;;;;;;23.20;20.80;;;;;;;15.57;100.00;99122.11;110353;1244;58996;-68
2023/09/17 03:45:06;;;;;;;21.50;19.30;;;;;;;15.54;100.00;99127.92;110330;1244;66028;-68
2023/09/17 03:47:33;;;;;;;23.00;20.60;;;;;;;15.51;100.00;99125.48;110283;1244;59262;-68
2023/09/17 03:49:59;;;;;;;22.50;20.30;;;;;;;15.50;100.00;99127.52;110294;1244;58996;-68
2023/09/17 03:52:27;;;;;;;23.20;20.70;;;;;;;15.49;100.00;99126.34;110295;1244;59228;-68
2023/09/17 03:54:53;;;;;;;21.50;19.20;;;;;;;15.48;100.00;99126.25;110349;1244;59662;-68
2023/09/17 03:57:20;;;;;;;21.40;19.20;;;;;;;15.48;100.00;99125.77;110338;1244;66031;-68
2023/09/17 03:59:47;;;;;;;21.90;19.70;;;;;;;15.49;100.00;99123.36;110306;1244;61300;-68
2023/09/17 04:02:15;;;;;;;22.30;20.00;;;;;;;15.49;100.00;99127.67;110292;1244;62950;-68
2023/09/17 04:04:42;;;;;;;22.50;20.30;;;;;;;15.50;100.00;99128.60;110312;1244;59142;-68
2023/09/17 04:07:08;;;;;;;22.10;19.80;;;;;;;15.52;100.00;99126.98;110310;1244;58987;-68
2023/09/17 04:09:35;;;;;;;23.80;21.40;;;;;;;15.54;100.00;99135.02;110340;1244;66492;-68
2023/09/17 04:12:05;;;;;;;24.30;21.70;;;;;;;15.57;100.00;99135.55;110366;1244;61009;-68
2023/09/17 04:14:32;;;;;;;23.90;21.30;;;;;;;15.59;100.00;99139.32;109905;1244;64049;-68
2023/09/17 04:17:00;;;;;;;23.40;21.00;;;;;;;15.59;100.00;99138.59;109719;1244;59019;-68
2023/09/17 04:19:28;;;;;;;22.50;20.20;;;;;;;15.60;100.00;99135.45;110280;1244;58861;-68
2023/09/17 04:21:56;;;;;;;21.80;19.60;;;;;;;15.61;100.00;99133.77;110368;1244;65715;-68
2023/09/17 04:24:22;;;;;;;24.20;20.60;;;;;;;15.62;100.00;99131.52;110304;1244;60433;-68
2023/09/17 04:26:49;;;;;;;23.30;20.90;;;;;;;15.64;100.00;99138.69;110269;1244;64172;-68
2023/09/17 04:29:15;;;;;;;23.00;20.60;;;;;;;15.67;100.00;99135.44;110272;1244;59018;-68
2023/09/17 04:31:42;;;;;;;24.00;21.60;;;;;;;15.68;100.00;99133.17;110346;1244;59211;-68
2023/09/17 04:34:08;;;;;;;23.40;21.10;;;;;;;15.70;100.00;99132.13;110311;1244;64762;-68
2023/09/17 04:36:35;;;;;;;22.10;19.90;;;;;;;15.71;100.00;99129.52;110301;1244;59014;-68
2023/09/17 04:39:03;;;;;;;22.20;20.00;;;;;;;15.73;100.00;99133.45;109901;1244;63019;-67
2023/09/17 04:41:29;;;;;;;23.70;21.40;;;;;;;15.74;100.00;99133.34;110323;1244;59025;-67
2023/09/17 04:43:56;;;;;;;25.00;22.40;;;;;;;15.76;100.00;99141.05;110299;1244;58966;-67
2023/09/17 04:46:22;;;;;;;24.50;21.90;;;;;;;15.78;100.00;99143.07;110315;1244;65720;-67
2023/09/17 04:48:49;;;;;;;24.00;21.70;;;;;;;15.79;100.00;99146.52;110334;1244;58990;-67
2023/09/17 04:51:16;;;;;;;25.00;22.50;;;;;;;15.81;100.00;99144.08;110284;1244;62886;-67
2023/09/17 04:53:43;;;;;;;23.30;21.10;;;;;;;15.84;100.00;99149.04;109792;1244;58957;-67
2023/09/17 04:56:10;;;;;;;24.80;22.30;;;;;;;15.85;100.00;99146.27;110382;1244;58962;-67
2023/09/17 04:58:36;;;;;;;24.80;22.30;;;;;;;15.85;100.00;99145.69;110341;1244;64468;-67
2023/09/17 05:01:03;;;;;;;24.70;22.30;;;;;;;15.85;100.00;99145.36;110333;1244;59172;-67
2023/09/17 05:03:30;;;;;;;25.00;22.40;;;;;;;15.85;100.00;99145.91;110298;1244;64030;-67
2023/09/17 05:05:57;;;;;;;25.20;22.60;;;;;;;15.85;100.00;99150.40;110357;1244;58957;-68
2023/09/17 05:08:24;;;;;;;25.30;22.80;;;;;;;15.86;100.00;99152.85;110311;1244;58939;-68
2023/09/17 05:10:50;;;;;;;25.80;23.20;;;;;;;15.86;100.00;99154.45;110298;1244;64468;-68
2023/09/17 05:13:17;;;;;;;23.70;21.30;;;;;;;15.86;100.00;99150.81;110280;1244;60980;-68
2023/09/17 05:15:44;;;;;;;23.70;21.30;;;;;;;15.89;100.00;99155.19;110306;1244;64088;-68
2023/09/17 05:18:10;;;;;;;23.00;20.80;;;;;;;15.99;100.00;99159.91;110306;1244;59232;-68
2023/09/17 05:20:43;;;;;;;23.20;20.90;;;;;;;16.02;100.00;99160.71;110279;1244;58949;-67
2023/09/17 05:23:11;;;;;;;21.90;19.80;;;;;;;16.10;100.00;99162.18;110367;1244;66037;-68
2023/09/17 05:25:38;;;;;;;20.80;18.90;;;;;;;16.40;100.00;99165.08;110343;1244;60242;-68
2023/09/17 05:28:06;;;;;;;20.30;18.00;;;;;;;16.90;100.00;99165.11;110305;1244;65215;-67
2023/09/17 05:30:34;;;;;;;18.80;17.00;;;;;;;17.28;100.00;99162.41;110312;1244;59001;-67
2023/09/17 05:33:01;;;;;;;17.40;15.70;;;;;;;17.37;100.00;99166.98;110274;1244;59372;-67
2023/09/17 05:35:28;;;;;;;15.70;14.10;;;;;;;17.71;100.00;99167.42;110338;1244;64911;-68
2023/09/17 05:37:55;;;;;;;15.20;13.70;;;;;;;17.94;100.00;99172.23;110304;1244;60162;-67
2023/09/17 05:40:22;;;;;;;15.60;14.10;;;;;;;17.98;100.00;99177.45;109792;1244;62926;-67
2023/09/17 05:42:49;;;;;;;14.80;13.50;;;;;;;18.02;100.00;99181.59;110289;1244;58881;-67
2023/09/17 05:45:16;;;;;;;14.20;12.70;;;;;;;18.18;100.00;99182.41;110318;1244;59061;-67
2023/09/17 05:47:43;;;;;;;14.80;13.40;;;;;;;18.44;100.00;99185.31;110327;1244;66033;-67
2023/09/17 05:50:10;;;;;;;15.10;13.70;;;;;;;18.48;100.00;99186.57;110354;1244;60035;-67
2023/09/17 05:52:37;;;;;;;14.40;12.90;;;;;;;18.46;100.00;99189.22;110339;1244;64033;-67
2023/09/17 05:55:04;;;;;;;15.00;13.30;;;;;;;18.47;100.00;99187.60;110349;1244;59018;-67
2023/09/17 05:57:31;;;;;;;14.50;13.10;;;;;;;18.45;100.00;99190.79;109814;1244;60425;-67
2023/09/17 05:59:58;;;;;;;15.30;13.70;;;;;;;18.45;100.00;99192.23;110323;1244;66518;-67
2023/09/17 06:02:25;;;;;;;15.30;13.90;;;;;;;18.46;100.00;99196.04;110376;1244;59093;-67
2023/09/17 06:04:54;;;;;;;15.90;14.20;;;;;;;18.47;100.00;99194.86;110312;1244;64847;-67
2023/09/17 06:07:21;;;;;;;15.50;14.00;;;;;;;18.51;100.00;99197.40;110327;1244;58962;-69
2023/09/17 06:09:48;;;;;;;15.30;13.80;;;;;;;18.55;100.00;99197.40;110294;1244;58840;-67
2023/09/17 06:12:15;;;;;;;16.00;14.40;;;;;;;18.62;100.00;99195.40;110334;1244;65719;-68
2023/09/17 06:14:42;;;;;;;15.20;13.70;;;;;;;18.66;100.00;99196.15;109821;1244;59055;-67
2023/09/17 06:17:08;;;;;;;17.20;14.50;;;;;;;18.68;100.00;99193.45;110294;1244;63735;-67
2023/09/17 06:19:37;;;;;;;16.00;14.40;;;;;;;18.72;100.00;99192.13;110271;1244;59057;-68
2023/09/17 06:22:04;;;;;;;15.60;14.10;;;;;;;18.74;100.00;99193.54;109908;1244;59105;-68
2023/09/17 06:24:31;;;;;;;13.90;12.60;;;;;;;18.78;100.00;99192.98;110298;1244;65862;-68
2023/09/17 06:26:57;;;;;;;15.10;13.80;;;;;;;18.85;100.00;99193.08;110354;1245;59855;-68
2023/09/17 06:29:24;;;;;;;14.90;13.40;;;;;;;18.93;100.00;99193.30;110032;1244;65259;-68
2023/09/17 06:31:51;;;;;;;14.40;13.10;;;;;;;19.03;100.00;99193.92;110287;1244;59282;-68
2023/09/17 06:34:17;;;;;;;14.00;12.70;;;;;;;19.11;100.00;99193.52;110293;1244;58862;-68
2023/09/17 06:36:45;;;;;;;13.70;12.40;;;;;;;19.19;100.00;99194.33;109774;1244;66020;-68
2023/09/17 06:39:12;;;;;;;13.20;12.00;;;;;;;19.26;100.00;99196.74;110293;1244;59127;-69
2023/09/17 06:41:39;;;;;;;14.10;12.30;;;;;;;19.30;100.00;99200.61;110278;1244;62915;-69
2023/09/17 06:44:06;;;;;;;14.60;13.10;;;;;;;19.37;100.00;99198.52;110263;1244;59052;-69
2023/09/17 06:46:32;;;;;;;12.80;11.70;;;;;;;19.45;100.00;99199.19;110341;1244;59230;-69
2023/09/17 06:48:59;;;;;;;13.60;12.30;;;;;;;19.53;100.00;99199.64;110308;1244;64966;-69
2023/09/17 06:51:26;;;;;;;13.70;11.80;;;;;;;19.70;100.00;99197.92;110209;1244;168858;-68
2023/09/17 06:53:53;;;;;;;12.90;11.70;;;;;;;19.96;100.00;99199.24;110312;1244;62631;-69
2023/09/17 06:56:23;;;;;;;12.60;11.60;;;;;;;20.21;100.00;99201.77;110324;1244;58892;-68
2023/09/17 06:58:50;;;;;;;11.90;10.80;;;;;;;20.38;100.00;99200.48;110319;1244;59087;-69
2023/09/17 07:01:17;;;;;;;11.40;10.40;;;;;;;20.53;100.00;99206.27;110305;1247;64852;-69
2023/09/17 07:03:44;;;;;;;12.50;11.40;;;;;;;20.64;100.00;99206.80;110323;1244;59910;-68
2023/09/17 07:06:11;;;;;;;11.60;10.50;;;;;;;20.72;100.00;99208.17;110303;1244;62874;-68
2023/09/17 07:08:37;;;;;;;10.60;9.70;;;;;;;20.73;100.00;99213.92;110308;1244;58977;-67
2023/09/17 07:11:04;;;;;;;11.50;10.40;;;;;;;20.76;100.00;99216.13;110303;1244;58950;-68
2023/09/17 07:13:31;;;;;;;11.40;10.40;;;;;;;20.83;100.00;99216.74;110262;1244;64853;-68
2023/09/17 07:15:57;;;;;;;11.40;10.30;;;;;;;20.89;100.00;99215.89;110323;1244;59134;-68
2023/09/17 07:18:26;;;;;;;11.30;10.40;;;;;;;20.95;100.00;99218.90;110320;1244;62841;-68
2023/09/17 07:20:52;;;;;;;10.80;9.70;;;;;;;21.00;100.00;99224.77;110272;1244;59374;-68
2023/09/17 07:23:19;;;;;;;11.60;10.30;;;;;;;21.06;100.00;99226.00;110397;1244;58913;-68
2023/09/17 07:25:46;;;;;;;9.30;8.50;;;;;;;21.14;100.00;99227.12;110306;1244;65739;-69
2023/09/17 07:28:13;;;;;;;9.50;8.70;;;;;;;21.24;100.00;99226.17;110304;1244;60178;-68
2023/09/17 07:30:39;;;;;;;10.40;9.50;;;;;;;21.37;100.00;99226.41;110288;1244;64121;-68
2023/09/17 07:33:06;;;;;;;9.00;8.10;;;;;;;21.58;100.00;99229.83;110276;1244;58952;-69
2023/09/17 07:35:33;;;;;;;9.60;8.70;;;;;;;21.73;100.00;99234.89;110283;1244;58875;-68
2023/09/17 07:38:00;;;;;;;9.60;8.70;;;;;;;21.87;100.00;99233.52;110324;1244;66301;-68
2023/09/17 07:40:27;;;;;;;8.80;8.10;;;;;;;22.07;100.00;99233.12;110324;1244;61061;-68
2023/09/17 07:42:53;;;;;;;8.10;7.30;;;;;;;22.28;100.00;99233.16;110273;1244;64046;-68
2023/09/17 07:45:20;;;;;;;7.10;6.50;;;;;;;22.46;100.00;99236.23;110274;1245;58935;-68
2023/09/17 07:47:46;;;;;;;7.00;6.20;;;;;;;22.55;100.00;99240.42;110290;1244;58963;-68
2023/09/17 07:50:13;;;;;;;6.70;5.90;;;;;;;22.61;100.00;99237.04;109827;1244;64861;-68
2023/09/17 07:52:40;;;;;;;6.60;6.00;;;;;;;22.65;100.00;99236.70;110295;1244;60109;-68
2023/09/17 07:55:08;;;;;;;6.20;5.70;;;;;;;22.72;100.00;99238.64;110284;1244;64075;-68
2023/09/17 07:57:34;;;;;;;7.20;6.20;;;;;;;22.80;100.00;99239.91;110307;1244;58941;-69
2023/09/17 08:00:02;;;;;;;6.90;6.20;;;;;;;22.84;100.00;99239.07;110364;1244;59111;-68
2023/09/17 08:02:28;;;;;;;6.50;6.00;;;;;;;22.88;100.00;99232.38;110354;1244;64878;-68
2023/09/17 08:04:55;;;;;;;6.70;5.70;;;;;;;22.93;100.00;99232.15;110352;1244;59187;-68
2023/09/17 08:07:22;;;;;;;5.70;5.20;;;;;;;22.94;100.00;99231.94;110373;1244;64163;-68
2023/09/17 08:09:48;;;;;;;5.60;5.10;;;;;;;23.02;100.00;99232.71;110312;1244;59254;-68
2023/09/17 08:12:15;;;;;;;7.80;5.30;;;;;;;23.12;100.00;99233.88;110292;1244;58985;-68
2023/09/17 08:14:46;;;;;;;6.20;5.60;;;;;;;23.16;100.00;99234.02;110312;1244;64593;-68
2023/09/17 08:17:13;;;;;;;5.20;4.70;;;;;;;23.17;100.00;99233.73;110323;1244;59805;-68
2023/09/17 08:19:39;;;;;;;5.10;4.70;;;;;;;23.27;100.00;99231.33;110272;1244;64057;-69
2023/09/17 08:22:06;;;;;;;5.80;5.10;;;;;;;23.38;100.00;99228.38;110367;1244;58950;-68
2023/09/17 08:24:32;;;;;;;5.20;4.70;;;;;;;23.44;100.00;99227.32;110352;1244;58883;-68
2023/09/17 08:26:59;;;;;;;5.30;4.80;;;;;;;23.54;100.00;99225.93;110301;1244;64900;-69
2023/09/17 08:29:27;;;;;;;5.10;4.60;;;;;;;23.66;100.00;99222.76;110332;1244;60247;-68
2023/09/17 08:31:53;;;;;;;4.00;3.60;;;;;;;23.78;100.00;99222.08;110303;1244;62823;-68
2023/09/17 08:34:20;;;;;;;4.70;4.20;;;;;;;23.79;100.00;99219.36;110324;1245;58932;-68
2023/09/17 08:36:46;;;;;;;4.40;4.10;;;;;;;23.79;100.00;99222.69;110246;1246;59090;-68
2023/09/17 08:39:13;;;;;;;4.40;4.10;;;;;;;23.76;100.00;99223.57;110246;1246;66304;-68
2023/09/17 08:41:41;;;;;;;4.50;4.20;;;;;;;23.74;100.00;99219.98;110209;1244;59960;-68
2023/09/17 08:44:08;;;;;;;4.30;3.90;;;;;;;23.65;100.00;99217.60;110284;1244;62495;-69
2023/09/17 08:46:36;;;;;;;4.20;3.80;;;;;;;23.55;100.00;99217.86;110276;1244;58976;-69
2023/09/17 08:49:03;;;;;;;4.10;3.70;;;;;;;23.52;100.00;99217.02;110271;1244;59110;-69
2023/09/17 08:51:37;;;;;;;4.30;3.90;;;;;;;23.45;100.00;99221.73;110350;1244;65854;-69
2023/09/17 08:54:08;;;;;;;4.20;3.90;;;;;;;23.39;100.00;99219.77;110358;1244;58987;-69
2023/09/17 08:56:39;;;;;;;3.90;3.60;;;;;;;23.35;100.00;99222.20;110315;1244;64120;-69
2023/09/17 08:59:11;;;;;;;3.80;3.40;;;;;;;23.42;100.00;99220.05;110270;1244;58995;-69
2023/09/17 09:01:40;;;;;;;4.00;3.70;;;;;;;23.59;100.00;99215.80;110292;1244;59022;-69
2023/09/17 09:04:08;;;;;;;3.90;3.40;;;;;;;23.65;100.00;99210.17;110317;1244;65443;-68
2023/09/17 09:06:35;;;;;;;4.10;3.70;;;;;;;23.74;100.00;99206.94;110313;1244;70550;-67
2023/09/17 09:09:05;;;;;;;3.80;3.50;;;;;;;23.88;100.00;99205.39;109797;1244;62794;-68
2023/09/17 09:11:34;;;;;;;4.10;3.80;;;;;;;24.04;100.00;99207.52;110277;1244;59002;-68
2023/09/17 09:14:04;;;;;;;3.80;3.30;;;;;;;24.18;100.00;99208.53;110296;1244;58868;-68
2023/09/17 09:16:33;;;;;;;3.30;3.10;;;;;;;24.34;100.00;99210.02;110311;1244;66203;-68
2023/09/17 09:19:00;;;;;;;3.90;3.10;;;;;;;24.50;100.00;99208.02;110324;1244;59025;-68
2023/09/17 09:21:28;;;;;;;3.00;2.80;;;;;;;24.64;100.00;99210.87;110286;1244;63767;-69
2023/09/17 09:23:58;;;;;;;3.30;2.50;;;;;;;24.70;100.00;99213.10;110305;1244;59013;-69
2023/09/17 09:26:35;;;;;;;;;;;;;;;24.82;100.00;99210.66;110358;1244;58963;-69
2023/09/17 09:29:05;;;;;;;3.20;2.90;;;;;;;24.87;100.00;99207.96;110343;1244;65757;-68
2023/09/17 09:31:33;;;;;;;3.00;2.50;;;;;;;24.95;100.00;99207.73;110328;1244;60035;-68
2023/09/17 09:34:01;;;;;;;2.60;2.40;;;;;;;25.03;100.00;99205.10;109856;1245;64077;-68
2023/09/17 09:36:30;;;;;;;3.20;2.90;;;;;;;25.10;100.00;99202.21;110292;1244;59017;-68
2023/09/17 09:38:57;;;;;;;3.00;2.80;;;;;;;25.15;100.00;99204.52;110300;1244;59388;-68
2023/09/17 09:41:25;;;;;;;3.00;2.70;;;;;;;25.16;100.00;99205.25;110316;1244;67224;-68
2023/09/17 09:43:53;;;;;;;4.70;3.20;;;;;;;25.24;100.00;99203.80;110333;1244;60170;-68
2023/09/17 09:46:19;;;;;;;2.90;2.50;;;;;;;25.25;100.00;99199.67;110336;1244;64093;-69
2023/09/17 09:48:47;;;;;;;2.80;2.60;;;;;;;25.18;100.00;99202.54;110243;1245;59020;-68
2023/09/17 09:51:16;;;;;;;2.90;2.60;;;;;;;25.24;100.00;99201.45;110266;1244;59103;-68
2023/09/17 09:53:42;;;;;;;2.90;2.60;;;;;;;25.33;100.00;99198.52;109775;1244;64514;-68
2023/09/17 09:56:11;;;;;;;3.40;2.60;;;;;;;25.33;100.00;99191.55;109895;1244;60313;-69
2023/09/17 09:58:39;;;;;;;2.90;2.70;;;;;;;25.41;100.00;99193.08;110251;1244;64032;-68
2023/09/17 10:01:06;;;;;;;2.90;2.70;;;;;;;25.47;100.00;99194.48;110214;1246;59245;-68
2023/09/17 10:03:33;;;;;;;3.20;2.90;;;;;;;25.40;100.00;99193.38;110296;1245;59047;-68
2023/09/17 10:06:06;;;;;;;3.20;2.50;;;;;;;25.33;100.00;99199.05;110212;1247;66037;-69
2023/09/17 10:08:37;;;;;;;3.70;2.70;;;;;;;25.51;100.00;99198.30;109719;1246;60350;-69
2023/09/17 10:11:05;;;;;;;2.80;2.60;;;;;;;25.75;100.00;99200.92;110281;1244;62522;-68
2023/09/17 10:13:33;;;;;;;2.60;2.40;;;;;;;25.87;100.00;99203.34;109764;1246;59162;-68
2023/09/17 10:16:01;;;;;;;2.70;2.50;;;;;;;26.10;100.00;99200.55;110266;1244;58883;-68
2023/09/17 10:18:30;;;;;;;2.20;2.00;;;;;;;26.37;100.00;99197.55;110332;1244;67183;-69
2023/09/17 10:21:09;;;;;;;2.50;2.20;;;;;;;26.55;100.00;99194.03;109916;1244;61102;-69
2023/09/17 10:23:37;;;;;;;2.80;2.60;;;;;;;26.56;100.00;99189.67;110316;1244;64930;-70
2023/09/17 10:26:05;;;;;;;1.60;1.50;;;;;;;26.63;100.00;99186.76;110310;1244;58924;-67
2023/09/17 10:28:34;;;;;;;3.30;2.60;;;;;;;26.68;100.00;99181.55;110356;1244;59039;-68
2023/09/17 10:31:01;;;;;;;2.40;1.80;;;;;;;26.58;100.00;99181.23;110314;1244;66853;-68
2023/09/17 10:33:33;;;;;;;1.90;1.80;;;;;;;26.42;100.00;99184.69;110274;1245;60128;-68
2023/09/17 10:36:01;;;;;;;2.30;2.20;;;;;;;26.30;100.00;99185.61;109859;1244;64993;-68
2023/09/17 10:38:31;;;;;;;2.70;2.50;;;;;;;26.27;100.00;99188.63;110256;1244;58950;-68
2023/09/17 10:41:00;;;;;;;2.30;2.20;;;;;;;26.24;100.00;99189.77;110287;1246;59024;-68
2023/09/17 10:43:33;;;;;;;2.40;2.00;;;;;;;26.28;100.00;99189.29;109867;1244;66769;-68
2023/09/17 10:46:01;;;;;;;3.40;2.20;;;;;;;26.31;100.00;99185.52;110033;1245;60761;-69
2023/09/17 10:48:31;;;;;;;4.70;2.20;;;;;;;26.32;100.00;99189.39;110272;1246;64011;-68
2023/09/17 10:50:59;;;;;;;2.60;2.30;;;;;;;26.32;100.00;99185.33;109946;1246;58960;-68
2023/09/17 10:53:28;;;;;;;2.50;2.20;;;;;;;26.40;100.00;99184.32;110324;1246;59781;-68
2023/09/17 10:56:09;;;;;;;3.40;2.30;;;;;;;26.49;100.00;99183.23;110299;1245;67229;-68
2023/09/17 10:58:38;;;;;;;2.60;2.40;;;;;;;26.59;100.00;99185.27;110295;1246;59979;-67
2023/09/17 11:01:07;;;;;;;2.50;2.30;;;;;;;26.68;100.00;99185.91;110248;1247;63715;-68
2023/09/17 11:03:37;;;;;;;3.20;2.50;;;;;;;26.78;100.00;99186.67;110260;1246;59067;-68
2023/09/17 11:06:15;;;;;;;2.30;2.10;;;;;;;26.81;100.00;99181.86;110254;1246;59011;-68
2023/09/17 11:08:44;;;;;;;2.50;2.00;;;;;;;27.01;100.00;99176.85;110241;1246;66105;-68
2023/09/17 11:11:14;;;;;;;3.10;2.40;;;;;;;27.21;100.00;99174.38;110192;1248;59628;-68